Time,TemperatureF,DewpointF,PressureIn,WindDirection,WindDirectionDegrees,WindSpeedMPH,WindSpeedGustMPH,Humidity,HourlyPrecipIn,Conditions,Clouds,dailyrainin,SolarRadiationWatts/m^2,SoftwareType,DateUTC
2013-01-20 00:05:00,31.4,28.0,29.74,West,278,0.0,6.0,86,0.00,,,0.00,0,weatherlink.com 1.10,2013-01-20 05:05:00,
2013-01-20 00:20:00,31.7,28.0,29.72,South,171,0.0,1.0,85,0.00,,,0.00,0,weatherlink.com 1.10,2013-01-20 05:20:00,
2013-01-20 00:35:00,31.5,28.0,29.71,South,171,0.0,0.0,86,0.00,,,0.00,0,weatherlink.com 1.10,2013-01-20 05:35:00,
2013-01-20 00:50:00,31.2,28.0,29.69,South,171,0.0,0.0,87,0.00,,,0.00,0,weatherlink.com 1.10,2013-01-20 05:50:00,
2013-01-20 01:05:00,31.2,28.0,29.68,South,171,0.0,1.0,86,0.00,,,0.00,0,weatherlink.com 1.10,2013-01-20 06:05:00,
2013-01-20 01:20:00,31.0,28.0,29.68,South,186,0.0,1.0,87,0.00,,,0.00,0,weatherlink.com 1.10,2013-01-20 06:20:00,
2013-01-20 01:35:00,31.0,28.0,29.68,WSW,242,0.0,2.0,87,0.00,,,0.00,0,weatherlink.com 1.10,2013-01-20 06:35:00,
2013-01-20 01:50:00,31.5,28.0,29.67,West,280,0.0,3.0,85,0.00,,,0.00,0,weatherlink.com 1.10,2013-01-20 06:50:00,
2013-01-20 02:05:00,32.0,28.0,29.66,SE,130,0.0,3.0,84,0.00,,,0.00,0,weatherlink.com 1.10,2013-01-20 07:05:00,
2013-01-20 02:20:00,33.5,28.0,29.64,SW,220,1.0,8.0,79,0.00,,,0.00,0,weatherlink.com 1.10,2013-01-20 07:20:00,
2013-01-20 02:35:00,33.2,28.0,29.65,WSW,240,2.0,6.0,81,0.00,,,0.00,0,weatherlink.com 1.10,2013-01-20 07:35:00,
2013-01-20 02:51:00,32.4,28.0,29.65,West,262,0.0,5.0,82,0.00,,,0.00,0,weatherlink.com 1.10,2013-01-20 07:51:00,
2013-01-20 03:06:00,32.1,27.0,29.63,ENE,76,0.0,3.0,81,0.00,,,0.00,0,weatherlink.com 1.10,2013-01-20 08:06:00,
2013-01-20 03:21:00,32.6,28.0,29.61,South,184,1.0,7.0,82,0.00,,,0.00,0,weatherlink.com 1.10,2013-01-20 08:21:00,
2013-01-20 03:36:00,33.2,28.0,29.60,SE,127,0.0,3.0,80,0.00,,,0.00,0,weatherlink.com 1.10,2013-01-20 08:36:00,
2013-01-20 03:51:00,32.9,27.0,29.59,SE,142,0.0,3.0,79,0.00,,,0.00,0,weatherlink.com 1.10,2013-01-20 08:51:00,
2013-01-20 04:06:00,32.8,27.0,29.56,ESE,111,0.0,4.0,79,0.00,,,0.00,0,weatherlink.com 1.10,2013-01-20 09:06:00,
2013-01-20 04:21:00,32.7,27.0,29.55,ESE,107,0.0,1.0,80,0.00,,,0.00,0,weatherlink.com 1.10,2013-01-20 09:21:00,
2013-01-20 04:36:00,32.6,27.0,29.53,SSE,150,0.0,4.0,79,0.00,,,0.00,0,weatherlink.com 1.10,2013-01-20 09:36:00,
2013-01-20 04:51:00,32.6,27.0,29.51,East,80,0.0,2.0,79,0.00,,,0.00,0,weatherlink.com 1.10,2013-01-20 09:51:00,
2013-01-20 05:06:00,32.1,27.0,29.50,West,260,0.0,2.0,81,0.00,,,0.00,0,weatherlink.com 1.10,2013-01-20 10:06:00,
2013-01-20 05:21:00,32.4,27.0,29.47,SSE,159,0.0,4.0,80,0.00,,,0.00,0,weatherlink.com 1.10,2013-01-20 10:21:00,
2013-01-20 05:36:00,32.3,26.0,29.46,SE,126,1.0,7.0,79,0.00,,,0.00,0,weatherlink.com 1.10,2013-01-20 10:36:00,
2013-01-20 05:51:00,32.2,26.0,29.45,East,101,0.0,3.0,79,0.00,,,0.00,0,weatherlink.com 1.10,2013-01-20 10:51:00,
2013-01-20 06:07:00,31.2,26.0,29.45,WNW,292,1.0,8.0,81,0.00,,,0.00,0,weatherlink.com 1.10,2013-01-20 11:07:00,
2013-01-20 06:21:00,30.7,26.0,29.44,ESE,106,2.0,5.0,82,0.00,,,0.00,0,weatherlink.com 1.10,2013-01-20 11:21:00,
2013-01-20 06:36:00,30.9,26.0,29.44,SW,223,0.0,4.0,82,0.00,,,0.00,0,weatherlink.com 1.10,2013-01-20 11:36:00,
2013-01-20 06:51:00,30.5,26.0,29.43,WSW,239,0.0,3.0,82,0.00,,,0.00,0,weatherlink.com 1.10,2013-01-20 11:51:00,
2013-01-20 07:06:00,30.9,27.0,29.43,SW,215,0.0,3.0,84,0.00,,,0.00,0,weatherlink.com 1.10,2013-01-20 12:06:00,
2013-01-20 07:21:00,32.2,27.0,29.41,SE,132,3.0,5.0,80,0.00,,,0.00,0,weatherlink.com 1.10,2013-01-20 12:21:00,
2013-01-20 07:36:00,33.8,27.0,29.39,ESE,116,2.0,8.0,76,0.00,,,0.00,11,weatherlink.com 1.10,2013-01-20 12:36:00,
2013-01-20 07:51:00,34.2,28.0,29.40,WSW,250,1.0,6.0,77,0.00,,,0.00,35,weatherlink.com 1.10,2013-01-20 12:51:00,
2013-01-20 08:06:00,33.8,27.0,29.39,SSW,192,0.0,6.0,75,0.00,,,0.00,51,weatherlink.com 1.10,2013-01-20 13:06:00,
2013-01-20 08:22:00,34.4,27.0,29.38,SSE,148,1.0,8.0,74,0.00,,,0.00,18,weatherlink.com 1.10,2013-01-20 13:22:00,
2013-01-20 08:37:00,34.7,27.0,29.38,NE,52,5.0,8.0,74,0.00,,,0.00,42,weatherlink.com 1.10,2013-01-20 13:37:00,
2013-01-20 08:52:00,35.6,28.0,29.37,SSE,155,1.0,7.0,74,0.00,,,0.00,21,weatherlink.com 1.10,2013-01-20 13:52:00,
2013-01-20 09:07:00,36.7,29.0,29.37,SE,140,0.0,11.0,73,0.00,,,0.00,35,weatherlink.com 1.10,2013-01-20 14:07:00,
2013-01-20 09:22:00,36.9,29.0,29.39,SW,230,3.0,5.0,74,0.00,,,0.00,0,weatherlink.com 1.10,2013-01-20 14:22:00,
2013-01-20 09:37:00,34.2,31.0,29.44,WSW,250,3.0,15.0,89,0.00,,,0.00,14,weatherlink.com 1.10,2013-01-20 14:37:00,
2013-01-20 09:52:00,33.2,31.0,29.45,SSW,197,2.0,10.0,92,0.00,,,0.00,18,weatherlink.com 1.10,2013-01-20 14:52:00,
2013-01-20 10:07:00,33.0,31.0,29.45,NW,316,2.0,9.0,92,0.00,,,0.00,26,weatherlink.com 1.10,2013-01-20 15:07:00,
2013-01-20 10:22:00,33.2,31.0,29.44,West,259,1.0,7.0,91,0.00,,,0.00,26,weatherlink.com 1.10,2013-01-20 15:22:00,
2013-01-20 10:37:00,33.5,31.0,29.45,SE,135,1.0,9.0,89,0.00,,,0.00,25,weatherlink.com 1.10,2013-01-20 15:37:00,
2013-01-20 10:52:00,33.4,30.0,29.44,East,86,1.0,7.0,88,0.00,,,0.00,30,weatherlink.com 1.10,2013-01-20 15:52:00,
2013-01-20 11:07:00,33.4,30.0,29.43,ESE,121,3.0,11.0,88,0.00,,,0.00,35,weatherlink.com 1.10,2013-01-20 16:07:00,
2013-01-20 11:22:00,32.9,30.0,29.42,SSW,203,3.0,6.0,90,0.00,,,0.00,14,weatherlink.com 1.10,2013-01-20 16:22:00,
2013-01-20 11:37:00,31.8,30.0,29.42,SSW,213,6.0,12.0,93,0.00,,,0.00,16,weatherlink.com 1.10,2013-01-20 16:37:00,
2013-01-20 11:52:00,32.1,30.0,29.43,NE,47,3.0,13.0,91,0.00,,,0.00,25,weatherlink.com 1.10,2013-01-20 16:52:00,
2013-01-20 12:07:00,32.9,28.0,29.43,WNW,283,7.0,17.0,83,0.00,,,0.00,283,weatherlink.com 1.10,2013-01-20 17:07:00,
2013-01-20 12:22:00,34.6,26.0,29.44,West,259,4.0,14.0,72,0.00,,,0.00,527,weatherlink.com 1.10,2013-01-20 17:22:00,
2013-01-20 12:37:00,34.9,25.0,29.45,SSW,204,5.0,13.0,67,0.00,,,0.00,353,weatherlink.com 1.10,2013-01-20 17:37:00,
2013-01-20 12:52:00,34.6,22.0,29.45,ENE,77,3.0,16.0,60,0.00,,,0.00,69,weatherlink.com 1.10,2013-01-20 17:52:00,
2013-01-20 13:07:00,32.6,20.0,29.45,SW,223,0.0,16.0,60,0.00,,,0.00,65,weatherlink.com 1.10,2013-01-20 18:07:00,
2013-01-20 13:22:00,34.1,22.0,29.46,ESE,107,8.0,11.0,61,0.00,,,0.00,211,weatherlink.com 1.10,2013-01-20 18:22:00,
2013-01-20 13:37:00,33.9,21.0,29.48,West,269,2.0,12.0,60,0.00,,,0.00,84,weatherlink.com 1.10,2013-01-20 18:37:00,
2013-01-20 13:52:00,30.9,25.0,29.50,South,182,0.0,12.0,77,0.00,,,0.00,97,weatherlink.com 1.10,2013-01-20 18:52:00,
2013-01-20 14:07:00,30.5,22.0,29.51,East,86,6.0,15.0,72,0.00,,,0.00,130,weatherlink.com 1.10,2013-01-20 19:07:00,
2013-01-20 14:22:00,30.2,22.0,29.51,WSW,237,3.0,17.0,70,0.00,,,0.00,49,weatherlink.com 1.10,2013-01-20 19:22:00,
2013-01-20 14:37:00,30.2,23.0,29.52,West,264,1.0,10.0,74,0.00,,,0.00,91,weatherlink.com 1.10,2013-01-20 19:37:00,
2013-01-20 15:07:00,28.7,23.0,29.55,NNE,17,0.0,7.0,78,0.00,,,0.00,39,weatherlink.com 1.10,2013-01-20 20:07:00,
2013-01-20 15:22:00,28.1,22.0,29.56,WSW,246,6.0,10.0,77,0.00,,,0.00,16,weatherlink.com 1.10,2013-01-20 20:22:00,
2013-01-20 15:37:00,26.9,21.0,29.57,WNW,293,7.0,13.0,79,0.00,,,0.00,14,weatherlink.com 1.10,2013-01-20 20:37:00,
2013-01-20 15:52:00,27.0,18.0,29.59,SE,140,2.0,11.0,68,0.00,,,0.00,21,weatherlink.com 1.10,2013-01-20 20:52:00,
2013-01-20 16:08:00,26.6,15.0,29.60,West,271,6.0,18.0,63,0.00,,,0.00,16,weatherlink.com 1.10,2013-01-20 21:08:00,
2013-01-20 16:23:00,26.3,16.0,29.61,WSW,256,19.0,19.0,65,0.00,,,0.00,5,weatherlink.com 1.10,2013-01-20 21:23:00,
2013-01-20 16:53:00,25.4,15.0,29.64,NW,317,2.0,16.0,66,0.00,,,0.00,0,weatherlink.com 1.10,2013-01-20 21:53:00,
2013-01-20 17:08:00,25.0,16.0,29.64,ESE,120,2.0,13.0,68,0.00,,,0.00,0,weatherlink.com 1.10,2013-01-20 22:08:00,
2013-01-20 17:23:00,24.3,17.0,29.66,SSW,201,7.0,17.0,73,0.00,,,0.00,0,weatherlink.com 1.10,2013-01-20 22:23:00,
2013-01-20 17:38:00,23.5,19.0,29.68,WSW,240,3.0,11.0,82,0.00,,,0.00,0,weatherlink.com 1.10,2013-01-20 22:38:00,
2013-01-20 17:53:00,21.7,18.0,29.70,West,259,2.0,10.0,84,0.00,,,0.00,0,weatherlink.com 1.10,2013-01-20 22:53:00,
2013-01-20 18:08:00,20.7,17.0,29.71,SW,228,1.0,7.0,85,0.00,,,0.00,0,weatherlink.com 1.10,2013-01-20 23:08:00,
2013-01-20 18:23:00,19.8,17.0,29.71,West,271,1.0,9.0,87,0.00,,,0.00,0,weatherlink.com 1.10,2013-01-20 23:23:00,
2013-01-20 18:38:00,19.1,15.0,29.72,WSW,247,1.0,11.0,84,0.00,,,0.00,0,weatherlink.com 1.10,2013-01-20 23:38:00,
2013-01-20 18:53:00,18.4,14.0,29.73,WSW,238,0.0,6.0,81,0.00,,,0.00,0,weatherlink.com 1.10,2013-01-20 23:53:00,
2013-01-20 19:08:00,17.9,13.0,29.75,WSW,242,0.0,8.0,80,0.00,,,0.00,0,weatherlink.com 1.10,2013-01-21 00:08:00,
2013-01-20 19:23:00,17.6,12.0,29.76,West,281,2.0,5.0,79,0.00,,,0.00,0,weatherlink.com 1.10,2013-01-21 00:23:00,
2013-01-20 19:38:00,17.1,12.0,29.77,SE,140,0.0,10.0,80,0.00,,,0.00,0,weatherlink.com 1.10,2013-01-21 00:38:00,
2013-01-20 19:53:00,16.4,11.0,29.78,WNW,296,1.0,10.0,80,0.00,,,0.00,0,weatherlink.com 1.10,2013-01-21 00:53:00,
2013-01-20 20:23:00,15.1,9.0,29.79,NW,311,0.0,7.0,75,0.00,,,0.00,0,weatherlink.com 1.10,2013-01-21 01:23:00,
2013-01-20 20:38:00,14.3,8.0,29.81,SW,234,0.0,11.0,75,0.00,,,0.00,0,weatherlink.com 1.10,2013-01-21 01:38:00,
2013-01-20 20:54:00,13.8,7.0,29.82,SSE,164,0.0,12.0,73,0.00,,,0.00,0,weatherlink.com 1.10,2013-01-21 01:54:00,
2013-01-20 21:24:00,12.7,6.0,29.84,West,276,7.0,10.0,74,0.00,,,0.00,0,weatherlink.com 1.10,2013-01-21 02:24:00,
2013-01-20 21:39:00,12.0,5.0,29.84,SW,225,2.0,6.0,74,0.00,,,0.00,0,weatherlink.com 1.10,2013-01-21 02:39:00,
2013-01-20 21:54:00,11.6,5.0,29.84,WNW,296,1.0,7.0,73,0.00,,,0.00,0,weatherlink.com 1.10,2013-01-21 02:54:00,
2013-01-20 22:09:00,11.4,4.0,29.84,WSW,246,1.0,4.0,73,0.00,,,0.00,0,weatherlink.com 1.10,2013-01-21 03:09:00,
2013-01-20 22:24:00,11.0,4.0,29.85,SW,236,0.0,7.0,73,0.00,,,0.00,0,weatherlink.com 1.10,2013-01-21 03:24:00,
2013-01-20 22:39:00,10.7,4.0,29.85,ESE,120,1.0,6.0,73,0.00,,,0.00,0,weatherlink.com 1.10,2013-01-21 03:39:00,
2013-01-20 22:54:00,10.3,3.0,29.86,West,277,2.0,9.0,72,0.00,,,0.00,0,weatherlink.com 1.10,2013-01-21 03:54:00,
2013-01-20 23:09:00,9.8,2.0,29.87,SSW,202,2.0,7.0,72,0.00,,,0.00,0,weatherlink.com 1.10,2013-01-21 04:09:00,
2013-01-20 23:24:00,9.4,2.0,29.87,West,273,2.0,6.0,72,0.00,,,0.00,0,weatherlink.com 1.10,2013-01-21 04:24:00,
2013-01-20 23:39:00,9.2,2.0,29.88,WNW,290,5.0,9.0,72,0.00,,,0.00,0,weatherlink.com 1.10,2013-01-21 04:39:00,
2013-01-20 23:54:00,8.6,1.0,29.88,West,273,4.0,6.0,72,0.00,,,0.00,0,weatherlink.com 1.10,2013-01-21 04:54:00,